createdAt,value
2019-02-11T00:00:03.844Z,2.10
2019-02-11T00:01:03.832Z,2.12
2019-02-11T00:02:03.847Z,2.20
2019-02-11T00:03:03.813Z,2.23
2019-02-11T00:04:03.803Z,2.20
2019-02-11T00:05:03.796Z,2.23
2019-02-11T00:06:03.767Z,2.20
2019-02-11T00:07:03.789Z,2.19
2019-02-11T00:08:03.744Z,2.17
2019-02-11T00:09:03.751Z,2.20
2019-02-11T00:10:03.733Z,2.17
2019-02-11T00:11:03.722Z,2.23
2019-02-11T00:12:03.751Z,2.19
2019-02-11T00:13:10.385Z,2.33
2019-02-11T00:14:04.694Z,2.20
2019-02-11T00:15:03.681Z,2.30
2019-02-11T00:16:03.668Z,2.15
2019-02-11T00:17:03.691Z,2.23
2019-02-11T00:18:03.656Z,2.17
2019-02-11T00:19:03.639Z,2.17
2019-02-11T00:20:03.648Z,2.31
2019-02-11T00:21:03.619Z,2.35
2019-02-11T00:22:03.637Z,2.34
2019-02-11T00:23:03.618Z,2.28
2019-02-11T00:24:03.587Z,2.30
2019-02-11T00:25:03.578Z,2.33
2019-02-11T00:26:03.562Z,2.38
2019-02-11T00:27:03.557Z,2.40
2019-02-11T00:28:03.570Z,2.34
2019-02-11T00:29:03.529Z,2.37
2019-02-11T00:30:03.526Z,2.37
2019-02-11T00:31:03.506Z,2.45
2019-02-11T00:32:03.506Z,2.45
2019-02-11T00:33:03.518Z,2.45
2019-02-11T00:34:03.479Z,2.34
2019-02-11T00:35:03.463Z,2.51
2019-02-11T00:36:03.469Z,2.37
2019-02-11T00:37:03.440Z,2.45
2019-02-11T00:38:03.458Z,2.48
2019-02-11T00:39:03.423Z,2.58
2019-02-11T00:40:03.419Z,2.56
2019-02-11T00:41:03.401Z,2.52
2019-02-11T00:42:03.388Z,2.53
2019-02-11T00:43:03.404Z,2.55
2019-02-11T00:44:03.370Z,2.53
2019-02-11T00:45:03.367Z,2.59
2019-02-11T00:46:03.356Z,2.61
2019-02-11T00:47:14.392Z,2.49
2019-02-11T00:48:03.350Z,2.49
2019-02-11T00:49:03.313Z,2.46
2019-02-11T00:50:03.306Z,2.53
2019-02-11T00:51:03.360Z,2.53
2019-02-11T00:52:03.281Z,2.53
2019-02-11T00:53:03.319Z,2.56
2019-02-11T00:54:03.257Z,2.55
2019-02-11T00:55:03.293Z,2.56
2019-02-11T00:56:03.256Z,2.56
2019-02-11T00:57:03.262Z,2.56
2019-02-11T00:58:03.244Z,2.56
2019-02-11T00:59:03.204Z,2.58
2019-02-11T01:00:03.207Z,2.53
2019-02-11T01:01:03.197Z,2.55
2019-02-11T01:02:03.175Z,2.63
2019-02-11T01:03:03.202Z,2.63
2019-02-11T01:04:03.158Z,2.63
2019-02-11T01:05:03.154Z,2.69
2019-02-11T01:06:03.138Z,2.76
2019-02-11T01:07:03.131Z,2.76
2019-02-11T01:08:03.151Z,2.73
2019-02-11T01:09:03.111Z,2.73
2019-02-11T01:10:03.100Z,2.76
2019-02-11T01:11:03.093Z,2.71
2019-02-11T01:12:03.081Z,2.74
2019-02-11T01:13:03.097Z,2.73
2019-02-11T01:14:03.058Z,2.77
2019-02-11T01:15:03.052Z,2.77
2019-02-11T01:16:03.034Z,2.81
2019-02-11T01:17:03.025Z,2.79
2019-02-11T01:18:03.049Z,2.88
2019-02-11T01:19:03.004Z,2.77
2019-02-11T01:20:02.988Z,2.85
2019-02-11T01:21:02.987Z,2.88
2019-02-11T01:22:02.970Z,3.00
2019-02-11T01:23:11.556Z,2.97
2019-02-11T01:24:03.016Z,3.02
2019-02-11T01:25:02.955Z,3.06
2019-02-11T01:26:02.931Z,3.05
2019-02-11T01:27:02.930Z,3.03
2019-02-11T01:28:02.937Z,3.00
2019-02-11T01:29:02.920Z,3.06
2019-02-11T01:30:02.909Z,3.06
2019-02-11T01:31:02.895Z,2.98
2019-02-11T01:32:02.884Z,3.02
2019-02-11T01:33:02.886Z,3.03
2019-02-11T01:34:02.861Z,3.10
2019-02-11T01:35:02.836Z,3.03
2019-02-11T01:36:02.939Z,3.21
2019-02-11T01:37:02.819Z,3.10
2019-02-11T01:38:02.837Z,3.13
2019-02-11T01:39:02.788Z,3.20
2019-02-11T01:40:02.791Z,3.21
2019-02-11T01:41:02.781Z,3.21
2019-02-11T01:42:17.427Z,3.25
2019-02-11T01:43:02.881Z,3.23
2019-02-11T01:44:02.798Z,3.27
2019-02-11T01:45:02.827Z,3.27
2019-02-11T01:46:02.772Z,3.27
2019-02-11T01:47:02.826Z,3.33
2019-02-11T01:48:02.739Z,3.30
2019-02-11T01:49:02.702Z,3.27
2019-02-11T01:50:02.715Z,3.24
2019-02-11T01:51:02.696Z,3.23
2019-02-11T01:52:02.651Z,3.27
2019-02-11T01:53:02.663Z,3.28
2019-02-11T01:54:02.626Z,3.28
2019-02-11T01:55:02.618Z,3.31
2019-02-11T01:56:02.613Z,3.23
2019-02-11T01:57:02.594Z,3.28
2019-02-11T01:58:02.631Z,3.27
2019-02-11T01:59:02.581Z,3.27
2019-02-11T02:00:02.572Z,3.28
2019-02-11T02:01:02.547Z,3.34
2019-02-11T02:02:02.539Z,3.23
2019-02-11T02:03:02.575Z,3.39
2019-02-11T02:04:02.508Z,3.28
2019-02-11T02:05:02.517Z,3.28
2019-02-11T02:06:02.504Z,3.23
2019-02-11T02:07:02.492Z,3.31
2019-02-11T02:08:02.498Z,3.28
2019-02-11T02:09:02.457Z,3.24
2019-02-11T02:10:02.443Z,3.24
2019-02-11T02:11:02.441Z,3.31
2019-02-11T02:12:02.439Z,3.33
2019-02-11T02:13:02.457Z,3.30
2019-02-11T02:14:02.426Z,3.39
2019-02-11T02:15:02.397Z,3.34
2019-02-11T02:16:02.390Z,3.43
2019-02-11T02:17:02.383Z,3.34
2019-02-11T02:18:02.372Z,3.43
2019-02-11T02:19:02.390Z,3.46
2019-02-11T02:20:02.341Z,3.42
2019-02-11T02:21:02.346Z,3.36
2019-02-11T02:22:02.330Z,3.39
2019-02-11T02:23:02.318Z,3.47
2019-02-11T02:24:02.324Z,3.30
2019-02-11T02:25:02.297Z,3.42
2019-02-11T02:26:02.285Z,3.44
2019-02-11T02:27:02.272Z,3.44
2019-02-11T02:28:02.262Z,3.39
2019-02-11T02:29:02.393Z,3.30
2019-02-11T02:30:02.392Z,3.39
2019-02-11T02:31:02.318Z,3.46
2019-02-11T02:32:02.284Z,3.33
2019-02-11T02:33:02.334Z,3.36
2019-02-11T02:34:02.339Z,3.33
2019-02-11T02:35:02.184Z,3.36
2019-02-11T02:36:02.170Z,3.34
2019-02-11T02:37:02.165Z,3.40
2019-02-11T02:38:02.151Z,3.44
2019-02-11T02:39:02.175Z,3.46
2019-02-11T02:40:02.140Z,3.34
2019-02-11T02:41:02.118Z,3.36
2019-02-11T02:42:02.116Z,3.47
2019-02-11T02:43:02.094Z,3.39
2019-02-11T02:44:02.121Z,3.44
2019-02-11T02:45:02.076Z,3.40
2019-02-11T02:46:02.069Z,3.43
2019-02-11T02:47:02.049Z,3.52
2019-02-11T02:48:02.050Z,3.44
2019-02-11T02:49:02.066Z,3.49
2019-02-11T02:50:02.031Z,3.47
2019-02-11T02:51:02.016Z,3.46
2019-02-11T02:52:02.011Z,3.40
2019-02-11T02:53:12.912Z,3.36
2019-02-11T02:54:01.995Z,3.46
2019-02-11T02:55:01.967Z,3.49
2019-02-11T02:56:01.940Z,3.49
2019-02-11T02:57:01.927Z,3.40
2019-02-11T02:58:01.917Z,3.47
2019-02-11T02:59:01.930Z,3.47
2019-02-11T03:00:01.906Z,3.42
2019-02-11T03:01:01.887Z,3.43
2019-02-11T03:02:01.874Z,3.53
2019-02-11T03:03:01.865Z,3.40
2019-02-11T03:04:01.880Z,3.49
2019-02-11T03:05:01.843Z,3.46
2019-02-11T03:06:01.834Z,3.50
2019-02-11T03:07:01.817Z,3.50
2019-02-11T03:08:01.809Z,3.43
2019-02-11T03:09:01.831Z,3.46
2019-02-11T03:10:01.793Z,3.54
2019-02-11T03:11:01.780Z,3.61
2019-02-11T03:12:01.766Z,3.58
2019-02-11T03:13:01.756Z,3.61
2019-02-11T03:14:05.731Z,3.47
2019-02-11T03:15:01.768Z,3.47
2019-02-11T03:16:01.722Z,3.58
2019-02-11T03:17:01.720Z,3.58
2019-02-11T03:18:01.701Z,3.60
2019-02-11T03:19:01.725Z,3.54
2019-02-11T03:20:01.683Z,3.49
2019-02-11T03:21:01.674Z,3.58
2019-02-11T03:22:01.665Z,3.53
2019-02-11T03:23:01.651Z,3.54
2019-02-11T03:24:01.673Z,3.43
2019-02-11T03:25:01.633Z,3.47
2019-02-11T03:26:01.621Z,3.60
2019-02-11T03:27:01.612Z,3.57
2019-02-11T03:28:01.592Z,3.58
2019-02-11T03:29:01.610Z,3.61
2019-02-11T03:30:01.574Z,3.58
2019-02-11T03:31:01.561Z,3.60
2019-02-11T03:32:01.557Z,3.70
2019-02-11T03:33:01.548Z,3.68
2019-02-11T03:34:01.561Z,3.58
2019-02-11T03:35:01.524Z,3.58
2019-02-11T03:36:01.561Z,3.58
2019-02-11T03:37:01.496Z,3.54
2019-02-11T03:38:01.489Z,3.58
2019-02-11T03:39:01.505Z,3.68
2019-02-11T03:40:01.461Z,3.70
2019-02-11T03:41:01.452Z,3.64
2019-02-11T03:42:01.450Z,3.65
2019-02-11T03:43:01.432Z,3.79
2019-02-11T03:44:01.445Z,3.71
2019-02-11T03:45:01.414Z,3.79
2019-02-11T03:46:01.398Z,3.75
2019-02-11T03:47:01.390Z,3.78
2019-02-11T03:48:01.381Z,3.71
2019-02-11T03:49:01.392Z,3.76
2019-02-11T03:50:01.366Z,3.76
2019-02-11T03:51:01.344Z,3.76
2019-02-11T03:52:01.338Z,3.78
2019-02-11T03:53:01.331Z,3.72
2019-02-11T03:54:01.354Z,3.76
2019-02-11T03:55:01.305Z,3.80
2019-02-11T03:56:01.291Z,3.76
2019-02-11T03:57:01.292Z,3.76
2019-02-11T03:58:01.273Z,3.76
2019-02-11T03:59:01.256Z,3.80
2019-02-11T04:00:01.278Z,3.76
2019-02-11T04:01:01.243Z,3.72
2019-02-11T04:02:01.226Z,3.78
2019-02-11T04:03:01.217Z,3.78
2019-02-11T04:04:01.207Z,3.75
2019-02-11T04:05:01.223Z,3.76
2019-02-11T04:06:01.186Z,3.61
2019-02-11T04:07:01.177Z,3.49
2019-02-11T04:08:01.164Z,3.25
2019-02-11T04:09:01.152Z,2.66
2019-02-11T04:10:01.170Z,2.08
2019-02-11T04:11:01.128Z,1.82
2019-02-11T04:12:01.123Z,1.93
2019-02-11T04:13:01.120Z,2.10
2019-02-11T04:14:01.097Z,1.99
2019-02-11T04:15:01.120Z,2.19
2019-02-11T04:16:01.078Z,2.22
2019-02-11T04:17:01.067Z,2.40
2019-02-11T04:18:01.056Z,2.46
2019-02-11T04:19:01.052Z,2.59
2019-02-11T04:20:01.063Z,2.63
2019-02-11T04:21:01.023Z,2.70
2019-02-11T04:22:01.016Z,2.89
2019-02-11T04:23:01.009Z,2.95
2019-02-11T04:24:00.996Z,3.07
2019-02-11T04:25:01.019Z,3.00
2019-02-11T04:26:00.968Z,2.95
2019-02-11T04:27:00.969Z,2.92
2019-02-11T04:28:00.950Z,3.02
2019-02-11T04:29:00.944Z,3.10
2019-02-11T04:30:00.970Z,3.20
2019-02-11T04:31:00.919Z,3.21
2019-02-11T04:32:00.906Z,2.98
2019-02-11T04:33:00.901Z,3.09
2019-02-11T04:34:00.887Z,3.15
2019-02-11T04:35:00.901Z,3.10
2019-02-11T04:36:00.876Z,3.21
2019-02-11T04:37:00.910Z,3.18
2019-02-11T04:38:00.848Z,3.23
2019-02-11T04:39:00.879Z,3.25
2019-02-11T04:40:00.934Z,3.23
2019-02-11T04:41:00.823Z,3.12
2019-02-11T04:42:00.807Z,3.23
2019-02-11T04:43:00.864Z,3.24
2019-02-11T04:44:00.778Z,3.25
2019-02-11T04:45:00.801Z,3.30
2019-02-11T04:46:00.756Z,3.28
2019-02-11T04:47:00.746Z,3.28
2019-02-11T04:48:00.745Z,3.27
2019-02-11T04:49:00.734Z,3.30
2019-02-11T04:50:00.753Z,3.28
2019-02-11T04:51:00.704Z,3.28
2019-02-11T04:52:00.701Z,3.39
2019-02-11T04:53:00.681Z,3.30
2019-02-11T04:54:00.833Z,3.21
2019-02-11T04:55:00.684Z,3.28
2019-02-11T04:56:00.649Z,3.25
2019-02-11T04:57:00.640Z,3.28
2019-02-11T04:58:00.628Z,3.24
2019-02-11T04:59:00.626Z,3.23
2019-02-11T05:00:00.634Z,3.33
2019-02-11T05:01:00.598Z,3.33
2019-02-11T05:02:00.586Z,3.27
2019-02-11T05:03:00.585Z,3.23
2019-02-11T05:04:00.567Z,3.27
2019-02-11T05:05:00.596Z,3.27
2019-02-11T05:06:00.549Z,3.31
2019-02-11T05:07:00.535Z,3.30
2019-02-11T05:08:00.523Z,3.30
2019-02-11T05:09:00.517Z,3.34
2019-02-11T05:10:00.504Z,3.31
2019-02-11T05:11:00.522Z,3.20
2019-02-11T05:12:00.482Z,3.28
2019-02-11T05:13:00.473Z,3.27
2019-02-11T05:14:00.461Z,3.27
2019-02-11T05:15:00.444Z,3.23
2019-02-11T05:16:00.466Z,3.23
2019-02-11T05:17:00.433Z,3.34
2019-02-11T05:18:00.415Z,3.39
2019-02-11T05:19:00.404Z,3.36
2019-02-11T05:20:00.395Z,3.42
2019-02-11T05:21:00.414Z,3.39
2019-02-11T05:22:00.372Z,3.31
2019-02-11T05:23:00.363Z,3.24
2019-02-11T05:24:00.349Z,3.27
2019-02-11T05:25:00.426Z,3.25
2019-02-11T05:26:00.359Z,3.21
2019-02-11T05:27:00.319Z,3.30
2019-02-11T05:28:00.317Z,3.36
2019-02-11T05:29:00.293Z,3.39
2019-02-11T05:30:00.316Z,3.39
2019-02-11T05:31:00.525Z,3.28
2019-02-11T05:32:00.273Z,3.24
2019-02-11T05:33:00.439Z,3.31
2019-02-11T05:34:00.252Z,3.27
2019-02-11T05:35:00.341Z,3.24
2019-02-11T05:36:00.263Z,3.25
2019-02-11T05:37:00.211Z,3.34
2019-02-11T05:38:00.200Z,3.27
2019-02-11T05:39:00.196Z,3.09
2019-02-11T05:40:00.300Z,3.07
2019-02-11T05:41:00.191Z,3.07
2019-02-11T05:42:00.159Z,3.09
2019-02-11T05:43:00.141Z,3.03
2019-02-11T05:44:00.135Z,3.07
2019-02-11T05:45:00.248Z,3.00
2019-02-11T05:46:00.141Z,2.97
2019-02-11T05:47:00.104Z,2.95
2019-02-11T05:48:00.096Z,2.94
2019-02-11T05:49:00.080Z,2.94
2019-02-11T05:50:00.203Z,2.84
2019-02-11T05:51:00.084Z,2.77
2019-02-11T05:52:00.046Z,2.76
2019-02-11T05:53:00.036Z,2.77
2019-02-11T05:54:00.024Z,2.73
2019-02-11T05:55:00.016Z,2.81
2019-02-11T05:56:00.254Z,2.76
2019-02-11T05:57:00.002Z,2.79
2019-02-11T05:57:59.984Z,2.81
2019-02-11T05:58:59.976Z,2.85
2019-02-11T05:59:59.969Z,2.74
2019-02-11T06:00:59.988Z,2.84
2019-02-11T06:01:59.943Z,2.73
2019-02-11T06:02:59.929Z,2.70
2019-02-11T06:03:59.918Z,2.73
2019-02-11T06:04:59.913Z,2.74
2019-02-11T06:05:59.922Z,2.79
2019-02-11T06:06:59.888Z,2.71
2019-02-11T06:07:59.877Z,2.74
2019-02-11T06:08:59.866Z,2.77
2019-02-11T06:09:59.873Z,2.79
2019-02-11T06:10:59.872Z,2.76
2019-02-11T06:11:59.836Z,2.74
2019-02-11T06:12:59.829Z,2.76
2019-02-11T06:13:59.822Z,2.74
2019-02-11T06:15:04.197Z,2.79
2019-02-11T06:16:00.837Z,2.81
2019-02-11T06:16:59.787Z,2.82
2019-02-11T06:17:59.769Z,2.82
2019-02-11T06:18:59.764Z,2.74
2019-02-11T06:19:59.754Z,2.84
2019-02-11T06:20:59.739Z,2.88
2019-02-11T06:21:59.755Z,2.79
2019-02-11T06:22:59.716Z,2.84
2019-02-11T06:23:59.706Z,2.82
2019-02-11T06:24:59.697Z,2.84
2019-02-11T06:25:59.698Z,2.84
2019-02-11T06:26:59.704Z,2.89
2019-02-11T06:27:59.664Z,2.88
2019-02-11T06:28:59.657Z,2.85
2019-02-11T06:29:59.644Z,2.88
2019-02-11T06:30:59.634Z,2.81
2019-02-11T06:31:59.647Z,2.91
2019-02-11T06:32:59.614Z,2.92
2019-02-11T06:33:59.601Z,2.89
2019-02-11T06:34:59.592Z,3.03
2019-02-11T06:35:59.580Z,2.97
2019-02-11T06:36:59.601Z,3.05
2019-02-11T06:37:59.559Z,3.00
2019-02-11T06:38:59.550Z,3.06
2019-02-11T06:39:59.542Z,3.02
2019-02-11T06:40:59.525Z,2.98
2019-02-11T06:41:59.550Z,2.92
2019-02-11T06:42:59.508Z,2.98
2019-02-11T06:43:59.493Z,3.06
2019-02-11T06:44:59.486Z,3.02
2019-02-11T06:45:59.474Z,3.06
2019-02-11T06:46:59.494Z,3.05
2019-02-11T06:47:59.458Z,3.05
2019-02-11T06:48:59.444Z,3.06
2019-02-11T06:49:59.430Z,3.02
2019-02-11T06:50:59.429Z,3.10
2019-02-11T06:51:59.435Z,3.06
2019-02-11T06:52:59.400Z,3.13
2019-02-11T06:53:59.388Z,3.05
2019-02-11T06:54:59.387Z,3.13
2019-02-11T06:55:59.369Z,3.05
2019-02-11T06:56:59.388Z,3.09
2019-02-11T06:57:59.350Z,3.05
2019-02-11T06:58:59.336Z,3.06
2019-02-11T06:59:59.324Z,3.05
2019-02-11T07:00:59.317Z,3.09
2019-02-11T07:01:59.331Z,3.02
2019-02-11T07:02:59.294Z,3.02
2019-02-11T07:03:59.289Z,3.10
2019-02-11T07:04:59.272Z,3.10
2019-02-11T07:05:59.266Z,3.06
2019-02-11T07:06:59.272Z,3.15
2019-02-11T07:07:59.236Z,3.16
2019-02-11T07:08:59.224Z,3.13
2019-02-11T07:09:59.217Z,3.10
2019-02-11T07:10:59.204Z,3.15
2019-02-11T07:11:59.220Z,3.23
2019-02-11T07:12:59.183Z,3.18
2019-02-11T07:13:59.194Z,3.23
2019-02-11T07:14:59.168Z,3.13
2019-02-11T07:15:59.151Z,3.27
2019-02-11T07:16:59.163Z,3.10
2019-02-11T07:17:59.131Z,3.10
2019-02-11T07:18:59.118Z,3.12
2019-02-11T07:19:59.106Z,3.12
2019-02-11T07:20:59.100Z,3.07
2019-02-11T07:21:59.120Z,3.18
2019-02-11T07:22:59.075Z,3.23
2019-02-11T07:23:59.066Z,3.27
2019-02-11T07:24:59.059Z,3.27
2019-02-11T07:25:59.059Z,3.28
2019-02-11T07:26:59.055Z,3.24
2019-02-11T07:27:59.024Z,3.27
2019-02-11T07:28:59.058Z,3.34
2019-02-11T07:29:59.004Z,3.33
2019-02-11T07:30:58.984Z,3.28
2019-02-11T07:31:59.001Z,3.31
2019-02-11T07:32:58.968Z,3.33
2019-02-11T07:33:58.960Z,3.31
2019-02-11T07:34:58.951Z,3.28
2019-02-11T07:35:58.936Z,3.30
2019-02-11T07:36:58.953Z,3.33
2019-02-11T07:37:58.923Z,3.46
2019-02-11T07:38:58.906Z,3.43
2019-02-11T07:39:58.895Z,3.46
2019-02-11T07:40:58.886Z,3.39
2019-02-11T07:41:58.914Z,3.42
2019-02-11T07:42:58.857Z,3.44
2019-02-11T07:43:58.873Z,3.42
2019-02-11T07:44:58.839Z,3.33
2019-02-11T07:45:58.826Z,3.42
2019-02-11T07:46:58.818Z,3.36
2019-02-11T07:47:58.832Z,3.36
2019-02-11T07:48:58.797Z,3.43
2019-02-11T07:49:58.784Z,3.40
2019-02-11T07:50:58.779Z,3.44
2019-02-11T07:51:58.765Z,3.39
2019-02-11T07:52:58.782Z,3.30
2019-02-11T07:53:58.741Z,3.31
2019-02-11T07:54:58.728Z,3.31
2019-02-11T07:55:58.718Z,3.33
2019-02-11T07:56:58.711Z,3.27
2019-02-11T07:57:58.726Z,3.30
2019-02-11T07:58:58.688Z,3.28
2019-02-11T07:59:58.672Z,3.36
2019-02-11T08:00:58.666Z,3.33
2019-02-11T08:01:58.653Z,3.31
2019-02-11T08:02:58.674Z,3.44
2019-02-11T08:03:58.639Z,3.30
2019-02-11T08:04:58.624Z,3.31
2019-02-11T08:05:58.610Z,3.36
2019-02-11T08:06:58.605Z,3.33
2019-02-11T08:07:58.618Z,3.24
2019-02-11T08:08:58.578Z,3.27
2019-02-11T08:09:58.577Z,3.34
2019-02-11T08:10:58.554Z,3.39
2019-02-11T08:12:00.324Z,3.40
2019-02-11T08:12:58.564Z,3.39
2019-02-11T08:13:58.527Z,3.53
2019-02-11T08:14:58.509Z,3.42
2019-02-11T08:15:58.507Z,3.57
2019-02-11T08:16:58.504Z,3.44
2019-02-11T08:17:58.515Z,3.60
2019-02-11T08:18:58.468Z,3.60
2019-02-11T08:19:58.459Z,3.60
2019-02-11T08:20:58.448Z,3.58
2019-02-11T08:21:58.440Z,3.65
2019-02-11T08:22:58.456Z,3.58
2019-02-11T08:23:58.420Z,3.60
2019-02-11T08:24:58.406Z,3.64
2019-02-11T08:25:58.400Z,3.71
2019-02-11T08:26:58.385Z,3.58
2019-02-11T08:27:58.399Z,3.58
2019-02-11T08:28:58.363Z,3.61
2019-02-11T08:29:58.348Z,3.61
2019-02-11T08:30:58.341Z,3.62
2019-02-11T08:31:58.331Z,3.62
2019-02-11T08:32:58.344Z,3.53
2019-02-11T08:33:58.338Z,3.68
2019-02-11T08:34:58.292Z,3.57
2019-02-11T08:35:58.288Z,3.62
2019-02-11T08:36:58.276Z,3.61
2019-02-11T08:37:58.290Z,3.65
2019-02-11T08:38:58.260Z,3.61
2019-02-11T08:39:58.243Z,3.65
2019-02-11T08:40:58.233Z,3.75
2019-02-11T08:41:58.219Z,3.72
2019-02-11T08:42:58.244Z,3.72
2019-02-11T08:43:58.358Z,3.64
2019-02-11T08:44:58.203Z,3.57
2019-02-11T08:45:58.183Z,3.65
2019-02-11T08:46:58.168Z,3.50
2019-02-11T08:47:58.188Z,3.62
2019-02-11T08:48:58.148Z,3.54
2019-02-11T08:49:58.140Z,3.57
2019-02-11T08:50:58.124Z,3.62
2019-02-11T08:51:58.116Z,3.70
2019-02-11T08:53:07.489Z,3.71
2019-02-11T08:53:58.096Z,3.82
2019-02-11T08:54:58.081Z,3.72
2019-02-11T08:55:58.073Z,3.76
2019-02-11T08:56:58.065Z,3.71
2019-02-11T08:57:58.074Z,3.64
2019-02-11T08:58:58.043Z,3.58
2019-02-11T08:59:58.033Z,3.57
2019-02-11T09:00:58.015Z,3.61
2019-02-11T09:01:58.012Z,3.70
2019-02-11T09:02:58.066Z,3.68
2019-02-11T09:03:58.001Z,3.62
2019-02-11T09:04:57.983Z,3.70
2019-02-11T09:05:57.977Z,3.70
2019-02-11T09:06:57.974Z,3.75
2019-02-11T09:07:57.998Z,3.78
2019-02-11T09:08:57.945Z,3.75
2019-02-11T09:09:57.942Z,3.75
2019-02-11T09:10:57.934Z,3.78
2019-02-11T09:11:57.918Z,3.78
2019-02-11T09:12:57.933Z,3.96
2019-02-11T09:13:57.923Z,3.97
2019-02-11T09:14:57.883Z,3.96
2019-02-11T09:15:57.877Z,4.03
2019-02-11T09:16:57.863Z,4.18
2019-02-11T09:17:57.874Z,4.18
2019-02-11T09:18:57.875Z,4.15
2019-02-11T09:19:57.867Z,4.18
2019-02-11T09:20:57.823Z,4.08
2019-02-11T09:21:57.825Z,3.94
2019-02-11T09:22:57.795Z,4.07
2019-02-11T09:23:57.812Z,4.12
2019-02-11T09:24:57.781Z,4.08
2019-02-11T09:25:57.765Z,4.06
2019-02-11T09:27:05.504Z,4.06
2019-02-11T09:27:57.730Z,3.89
2019-02-11T09:28:57.747Z,3.97
2019-02-11T09:29:57.712Z,3.96
2019-02-11T09:30:57.696Z,3.96
2019-02-11T09:31:57.682Z,3.94
2019-02-11T09:32:57.673Z,3.97
2019-02-11T09:33:57.694Z,3.88
2019-02-11T09:34:57.663Z,3.89
2019-02-11T09:35:57.641Z,3.88
2019-02-11T09:36:57.634Z,3.90
2019-02-11T09:37:57.624Z,3.97
2019-02-11T09:38:57.652Z,4.08
2019-02-11T09:39:57.611Z,4.10
2019-02-11T09:40:57.613Z,4.15
2019-02-11T09:41:57.869Z,4.14
2019-02-11T09:42:57.581Z,4.15
2019-02-11T09:43:57.589Z,4.21
2019-02-11T09:44:57.556Z,4.22
2019-02-11T09:46:03.695Z,4.33
2019-02-11T09:46:58.567Z,4.47
2019-02-11T09:47:57.529Z,4.64
2019-02-11T09:48:57.563Z,4.86
2019-02-11T09:49:57.509Z,4.88
2019-02-11T09:50:57.499Z,4.62
2019-02-11T09:51:57.497Z,4.58
2019-02-11T09:52:57.470Z,4.55
2019-02-11T09:53:57.520Z,4.67
2019-02-11T09:54:57.464Z,5.01
2019-02-11T09:55:57.455Z,5.32
2019-02-11T09:56:57.457Z,5.30
2019-02-11T09:57:57.431Z,5.30
2019-02-11T09:58:57.452Z,5.37
2019-02-11T09:59:57.399Z,5.17
2019-02-11T10:00:57.414Z,5.12
2019-02-11T10:01:57.395Z,5.22
2019-02-11T10:02:57.383Z,5.13
2019-02-11T10:03:57.387Z,5.27
2019-02-11T10:04:57.342Z,4.99
2019-02-11T10:05:57.345Z,4.84
2019-02-11T10:06:57.326Z,4.69
2019-02-11T10:07:57.319Z,4.80
2019-02-11T10:08:57.340Z,4.61
2019-02-11T10:09:57.309Z,4.57
2019-02-11T10:10:57.284Z,4.58
2019-02-11T10:11:57.278Z,4.54
2019-02-11T10:12:57.259Z,4.59
2019-02-11T10:13:57.280Z,4.70
2019-02-11T10:14:57.238Z,4.65
2019-02-11T10:15:57.239Z,4.70
2019-02-11T10:16:57.215Z,4.83
2019-02-11T10:17:57.211Z,4.83
2019-02-11T10:18:57.230Z,4.99
2019-02-11T10:19:57.184Z,5.12
2019-02-11T10:20:57.174Z,5.32
2019-02-11T10:21:57.169Z,5.48
2019-02-11T10:22:57.165Z,5.37
2019-02-11T10:23:57.169Z,5.25
2019-02-11T10:24:57.138Z,5.14
2019-02-11T10:25:57.137Z,5.23
2019-02-11T10:26:57.134Z,5.22
2019-02-11T10:27:57.094Z,5.19
2019-02-11T10:28:57.115Z,5.19
2019-02-11T10:29:57.074Z,5.14
2019-02-11T10:30:57.070Z,5.14
2019-02-11T10:31:57.056Z,5.23
2019-02-11T10:32:57.043Z,5.19
2019-02-11T10:33:57.067Z,5.30
2019-02-11T10:34:57.024Z,5.22
2019-02-11T10:35:57.047Z,5.19
2019-02-11T10:36:57.020Z,5.49
2019-02-11T10:37:56.998Z,5.40
2019-02-11T10:38:57.026Z,5.46
2019-02-11T10:39:56.968Z,5.67
2019-02-11T10:40:56.959Z,5.73
2019-02-11T10:41:56.949Z,5.57
2019-02-11T10:42:56.943Z,5.82
2019-02-11T10:43:56.924Z,5.82
2019-02-11T10:44:56.943Z,5.83
2019-02-11T10:45:56.899Z,5.88
2019-02-11T10:46:56.905Z,6.03
2019-02-11T10:47:57.078Z,6.22
2019-02-11T10:48:56.874Z,6.54
2019-02-11T10:49:56.886Z,6.56
2019-02-11T10:50:56.855Z,6.65
2019-02-11T10:51:56.935Z,6.73
2019-02-11T10:52:56.831Z,6.77
2019-02-11T10:53:56.808Z,6.41
2019-02-11T10:54:56.840Z,6.59
2019-02-11T10:55:56.795Z,6.25
2019-02-11T10:56:56.795Z,6.01
2019-02-11T10:57:56.786Z,6.07
2019-02-11T10:58:56.774Z,5.88
2019-02-11T10:59:56.790Z,6.03
2019-02-11T11:00:56.741Z,5.88
2019-02-11T11:01:56.746Z,6.03
2019-02-11T11:02:56.727Z,6.10
2019-02-11T11:03:56.716Z,6.07
2019-02-11T11:04:56.727Z,6.06
2019-02-11T11:05:56.727Z,6.25
2019-02-11T11:06:56.674Z,6.33
2019-02-11T11:07:56.675Z,6.38
2019-02-11T11:08:56.658Z,6.22
2019-02-11T11:09:56.669Z,6.06
2019-02-11T11:10:56.635Z,5.83
2019-02-11T11:11:56.624Z,5.74
2019-02-11T11:12:56.620Z,5.75
2019-02-11T11:13:56.602Z,5.75
2019-02-11T11:14:56.622Z,5.88
2019-02-11T11:15:56.579Z,6.06
2019-02-11T11:16:56.566Z,6.26
2019-02-11T11:17:56.563Z,6.30
2019-02-11T11:18:56.546Z,6.44
2019-02-11T11:19:56.569Z,6.46
2019-02-11T11:20:56.531Z,6.38
2019-02-11T11:21:56.515Z,6.36
2019-02-11T11:22:56.519Z,6.33
2019-02-11T11:23:56.499Z,6.28
2019-02-11T11:24:56.512Z,6.29
2019-02-11T11:25:56.461Z,6.14
2019-02-11T11:26:56.454Z,6.11
2019-02-11T11:27:56.448Z,6.11
2019-02-11T11:28:56.439Z,6.11
2019-02-11T11:29:56.456Z,6.21
2019-02-11T11:30:56.424Z,6.29
2019-02-11T11:31:56.412Z,6.33
2019-02-11T11:32:56.392Z,6.36
2019-02-11T11:33:56.393Z,6.66
2019-02-11T11:34:56.400Z,6.86
2019-02-11T11:35:56.361Z,6.77
2019-02-11T11:36:56.361Z,6.71
2019-02-11T11:37:56.369Z,6.65
2019-02-11T11:38:56.331Z,6.50
2019-02-11T11:39:56.349Z,6.35
2019-02-11T11:40:56.309Z,6.40
2019-02-11T11:41:56.307Z,6.28
2019-02-11T11:42:56.292Z,6.43
2019-02-11T11:43:56.277Z,6.79
2019-02-11T11:44:56.291Z,6.97
2019-02-11T11:45:56.245Z,7.19
2019-02-11T11:46:56.250Z,7.17
2019-02-11T11:47:56.235Z,7.04
2019-02-11T11:48:56.223Z,6.80
2019-02-11T11:49:56.243Z,6.69
2019-02-11T11:50:56.203Z,6.77
2019-02-11T11:51:56.191Z,6.63
2019-02-11T11:52:56.177Z,6.43
2019-02-11T11:53:56.167Z,6.41
2019-02-11T11:54:56.197Z,6.35
2019-02-11T11:55:56.168Z,6.21
2019-02-11T11:56:59.161Z,6.29
2019-02-11T11:57:56.122Z,6.22
2019-02-11T11:58:56.142Z,6.29
2019-02-11T11:59:56.139Z,6.28
2019-02-11T12:00:56.194Z,6.22
2019-02-11T12:01:56.082Z,6.16
2019-02-11T12:03:04.686Z,6.06
2019-02-11T12:03:57.067Z,6.04
2019-02-11T12:04:56.100Z,5.98
2019-02-11T12:05:56.042Z,5.93
2019-02-11T12:06:56.049Z,5.73
2019-02-11T12:07:56.033Z,5.48
2019-02-11T12:08:59.030Z,5.09
2019-02-11T12:09:55.997Z,4.70
2019-02-11T12:10:56.018Z,4.62
2019-02-11T12:11:55.984Z,4.42
2019-02-11T12:12:55.971Z,4.25
2019-02-11T12:13:55.961Z,4.28
2019-02-11T12:14:55.949Z,4.19
2019-02-11T12:15:55.968Z,4.25
2019-02-11T12:17:02.297Z,4.54
2019-02-11T12:17:56.913Z,4.58
2019-02-11T12:18:55.914Z,4.61
2019-02-11T12:19:55.892Z,4.61
2019-02-11T12:20:56.040Z,4.57
2019-02-11T12:21:55.884Z,4.62
2019-02-11T12:22:56.052Z,4.57
2019-02-11T12:23:55.847Z,4.54
2019-02-11T12:24:55.845Z,4.50
2019-02-11T12:25:55.862Z,4.51
2019-02-11T12:26:55.834Z,4.46
2019-02-11T12:27:55.818Z,4.50
2019-02-11T12:28:55.817Z,4.57
2019-02-11T12:29:55.794Z,4.51
2019-02-11T12:30:55.804Z,4.69
2019-02-11T12:31:55.766Z,4.75
2019-02-11T12:32:56.374Z,4.80
2019-02-11T12:33:55.735Z,4.95
2019-02-11T12:34:55.863Z,5.01
2019-02-11T12:35:55.745Z,5.12
2019-02-11T12:36:55.715Z,5.16
2019-02-11T12:37:55.710Z,5.12
2019-02-11T12:38:55.697Z,5.07
2019-02-11T12:39:55.677Z,4.99
2019-02-11T12:40:55.744Z,4.73
2019-02-11T12:41:55.664Z,4.59
2019-02-11T12:42:55.668Z,4.52
2019-02-11T12:43:55.628Z,4.40
2019-02-11T12:44:55.616Z,4.51
2019-02-11T12:45:55.657Z,4.50
2019-02-11T12:47:12.785Z,4.58
2019-02-11T12:47:56.594Z,4.50
2019-02-11T12:48:55.578Z,4.46
2019-02-11T12:49:55.617Z,4.55
2019-02-11T12:50:55.583Z,4.57
2019-02-11T12:51:55.546Z,4.59
2019-02-11T12:52:55.559Z,4.64
2019-02-11T12:53:55.523Z,4.73
2019-02-11T12:54:55.522Z,4.80
2019-02-11T12:55:55.549Z,4.89
2019-02-11T12:56:55.504Z,4.88
2019-02-11T12:57:55.478Z,4.91
2019-02-11T12:58:55.469Z,4.92
2019-02-11T12:59:55.478Z,4.98
2019-02-11T13:00:55.485Z,4.99
2019-02-11T13:01:55.472Z,5.05
2019-02-11T13:02:55.440Z,5.09
2019-02-11T13:03:55.419Z,5.07
2019-02-11T13:04:55.417Z,5.14
2019-02-11T13:05:55.437Z,5.23
2019-02-11T13:06:55.399Z,5.10
2019-02-11T13:07:55.394Z,5.19
2019-02-11T13:08:55.383Z,5.35
2019-02-11T13:09:55.353Z,5.50
2019-02-11T13:10:55.367Z,5.59
2019-02-11T13:11:55.364Z,5.67
2019-02-11T13:12:55.321Z,5.85
2019-02-11T13:13:55.324Z,6.13
2019-02-11T13:14:55.304Z,6.07
2019-02-11T13:16:01.259Z,5.92
2019-02-11T13:16:56.334Z,5.78
2019-02-11T13:17:55.507Z,5.68